Racecast

Alycia Hart

Syracuse (UT) · SO-2 · NY DA2 DAALBANY · Compare head to head

Athlete rating 113.1 2026 TF season
Best race 148.6 XC
Races 89
Seasons 8 2019 — 2026

RankedNation #4012·NCAA DI #2744·NORTHEAST #319·NY #120·Team #47 ?

Rating scale ?

Cross Country

2025 XC 114.4

Syracuse (UT) · Grade So

Date Meet Event Result Place Rating Difficulty PR/SR Flags
2025-10-31 EP Tom Sawyer State Park 6000m 22:03.6 137th · 8th on team 117.4 -0.076 ★CR CSR
2025-10-17 West Windsor Field 6000m 21:31.2 85th · 1st on team 119.0 -0.080 ★PR ★CR SR CSR RSR
2025-10-03 Lehigh University - Murray H. Goodman Campus 6000m 23:17 152nd · 6th on team 108.0 -0.101 ★CR CSR
2025-09-12 Penn State University 6000m 22:19 41st · 10th on team 115.9 -0.075 ★CR SR CSR RSR
2025-08-30 Lang XC Course 5000m 19:04.4 11th · 8th on team 111.6 -0.071 ★CR SR CSR RSR

2024 XC 118.7

Ole Miss (TN) · Grade Fr

Date Meet Event Result Place Rating Difficulty PR/SR Flags
2024-09-27 Gans Creek Recreation Area 6000m 21:34.8 9th · 2nd on team 118.6 -0.078 PR ★CR SR CSR
2024-08-31 Mike Rose Complex 5000m 18:44.6 12th · 6th on team 118.8 ★CR SR CSR RSR

2023 XC 140.7

Saratoga Springs (NY) · Grade 12

Date Meet Event Result Place Rating Difficulty PR/SR Flags
2023-12-02 Glendoveer Golf Course 5000m 18:26.2 33rd · 2nd on team 146.2 +0.031 CSR RSR
2023-11-18 Bowdoin Park 5000m 18:43.6 5th · 2nd on team 141.8 +0.018 CSR RSR
2023-11-11 VVS High School 5000m 18:35.1 4th · 2nd on team 137.2 -0.019 ★CR CSR
2023-09-23 Goddard Memorial State Park 5000m 18:13.9 7th · 2nd on team 137.6 -0.035 ★CR SR CSR RSR

2022 XC 137.0

Saratoga Springs (NY) · Grade 11

Date Meet Event Result Place Rating Difficulty PR/SR Flags
2022-12-03 Glendoveer Golf Course 5000m 18:04.9 42nd · 3rd on team 148.6 +0.031 ★CR ★R CSR RSR
2022-11-26 Bowdoin Park 5000m 19:46.5 20th · 5th on team 134.5 +0.018
2022-11-19 Bowdoin Park 5000m 18:51.1 7th · 5th on team 140.8 +0.018 CSR RSR
2022-11-12 Vernon Verona-Sherrill HS 5000m 18:45.6 7th · 3rd on team 140.4 +0.003 ★CR CSR RSR
2022-11-05 Queensbury HS 5000m 19:20.5 11th · 6th on team 129.7 -0.046 ★CR CSR
2022-10-29 Saratoga Spa Park 5000m 17:35.2 3rd · 3rd on team 134.8 -0.087 ★PR ★CR SR CSR RSR
2022-09-10 Vernon Verona-Sherrill HS 5000m 20:35 6th · 4th on team 129.9 +0.003 CR SR CSR RSR

2021 XC 135.1

Saratoga Springs (NY) · Grade 10

Date Meet Event Result Place Rating Difficulty PR/SR Flags
2021-11-27 Bowdoin Park 5000m 18:32.4 2nd · 2nd on team 145.5 +0.018 ★CR CSR RSR
2021-11-20 Bowdoin Park 5000m 19:29.8 34th · 6th on team 136.8 +0.018 CR CSR
2021-11-13 Chenango Valley State Park 5000m 18:02.4 4th · 2nd on team 142.4 -0.025 PR ★CR SR CSR RSR
2021-11-05 Saratoga Spa Park 4828m 17:28.4 4th · 4th on team 139.4 -0.037 ★PR ★CR SR CSR
2021-10-30 Saratoga Spa Park 4828m 17:32.1 2nd · 2nd on team 139.8 -0.037 PR CR SR CSR RSR
2021-10-16 Saratoga Spa Park 4828m 18:10.7 4th · 4th on team 136.0 -0.037 RSR
2021-10-12 Saratoga Spa Park 4828m 18:10 3rd · 3rd on team 135.6 -0.037 PR CR SR CSR RSR
2021-10-02 Tawasentha Park 4586m 17:36.7 6th · 6th on team 133.8 -0.018 ★PR ★CR SR CSR RSR
2021-09-18 Queensbury HS 5000m 20:58.8 31st · 6th on team 119.2 -0.046 CR SR CSR
2021-09-11 New Scotland Town Park 5000m 21:21.4 10th · 6th on team 122.1 -0.013 ★CR SR CSR RSR

2020 XC 133.2

Saratoga Springs (NY) · Grade 9

Date Meet Event Result Place Rating Difficulty PR/SR Flags
2020-11-22 Saratoga Spa Park 5000m 18:21 10th · 7th on team 130.3 -0.087
2020-10-27 Unknown 4023m 15:20.9 6th · 5th on team 135.1 ★PR ★CR SR CSR
2020-10-19 Saratoga Spa Park 4828m 18:27 5th · 5th on team 131.7 -0.037 PR CR SR CSR
2020-10-10 Saratoga Spa Park 5000m 18:16.5 4th · 4th on team 133.0 -0.087 PR CR SR CSR
2020-10-05 JFK SportsComplex 5000m 18:56.2 5th · 5th on team 135.9 -0.022 PR ★CR SR CSR RSR

2019 XC 143.0

Saratoga Springs (NY) · Grade 8

Date Meet Event Result Place Rating Difficulty PR/SR Flags
2019-11-04 Saratoga Spa Park 4828m 18:55.1 22nd · 8th on team 146.5 -0.037 PR CR R SR CSR RSR
2019-10-12 Saratoga Spa Park 4892m 19:38.6 1st · 1st on team 139.5 -0.058 ★PR ★CR R SR CSR RSR
2019-08-31 Murray Athletic Center 2m 16:37.2 1st · 1st on team ★PR ★CR SR CSR

Track & Field

2026 TF 113.1

Syracuse (UT) · Grade SO-2

Date Meet Event Result Place Rating Difficulty PR/SR Flags
2026-01-31 Meet results → Women's Mile 5:22.68 16th · 5th on team ★PR SR
2026-01-17 Cornell Upstate Challenge 1mile 5:11.23 8th · 6th on team 113.1 -0.038 SR RSR

2025 TF 114.4

Ole Miss (TN) · Grade Fr

Date Meet Event Result Place Rating Difficulty PR/SR Flags
2025-03-28 2025 Battle on the Bayou 1500m 4:28.85 16th · 1st on team 119.5 -0.041 ★PR SR RSR
2025-03-21 Ole Miss Classic 3000m 9:58.77 2nd · 2nd on team 115.4 -0.037 ★PR SR RSR
2025-01-31 Razorback Invitational 1mile 4:59.36 53rd · 2nd on team 115.1 -0.049 SR RSR
2025-01-17 Vanderbilt Indoor Invitational 1000m 2:56.45 21st · 2nd on team 114.2 -0.045 SR RSR
2025-01-10 Commodore Challenge 1000m 3:07.15 13th · 1st on team 107.6 -0.045 SR RSR

2024 TF 135.1

Kinetic Running (NY) · Grade 12

Date Meet Event Result Place Rating Difficulty PR/SR Flags
2024-06-16 New Balance Nationals Outdoor 1mile 4:48.6 19th · 1st on team 139.8 -0.049 ★PR SR RSR
2024-06-16 New Balance Nationals Outdoor 800m 2:15.35 78th · 1st on team 133.2 -0.049
2024-06-16 New Balance Nationals Outdoor 1500m 4:29.53 21st · 1st on team 138.2 -0.049 PR SR
2024-05-18 William F. Eddy Jr. Track & Field Invitational 800m 2:10.97 2nd · 1st on team 138.0 -0.046 ★PR SR
2024-05-14 Girls Suburban Council Championships 800m 2:22.57 3rd · 1st on team 127.8 -0.040
2024-05-11 Dr. Jack V. Irion Queensbury Invitational 2024 800m 2:13.49 1st · 1st on team 135.3 -0.046
2024-05-11 Dr. Jack V. Irion Queensbury Invitational 2024 1500m 4:35.41 1st · 1st on team 135.5 -0.046 SR
2024-05-01 Saratoga vs Shen Girls 800m 2:11.55 1st · 1st on team 138.5 -0.039 PR SR RSR
2024-03-02 NYSPHSAA Indoor Championship 1000m 2:56.18 10th · 1st on team 132.6 -0.053
2024-02-24 Ocean Breeze Elite Invitational 1000m 2:56.04 3rd · 1st on team 132.7 -0.053 SR
2024-02-18 Section 2 State Qualifier Shot Put and Weight Throw 1000m 2:58.96 1st · 1st on team 135.4 -0.016
2024-02-10 Section 2 State Qualifier 1000m 2:58.96 1st · 1st on team 135.4 -0.016 SR
2024-02-03 Section 2 Division I Shot Put and Weight Throw 600m 1:37.27 1st · 1st on team -0.039
2024-02-03 Section 2 Division I Shot Put and Weight Throw 1000m 2:59.17 1st · 1st on team 132.1 -0.039
2024-01-27 Section 2 Division I Championship 600m 1:37.27 1st · 1st on team -0.016 PR SR
2024-01-27 Section 2 Division I Championship 1000m 2:59.17 1st · 1st on team 135.3 -0.016 SR
2024-01-13 Utica Invitational 1500m 4:38.8 1st · 1st on team 135.6 -0.046 SR
2024-01-07 Freedom Games 1600m 4:54.2 1st · 1st on team 136.1 -0.053 ★PR SR RSR
2023-12-27 MSTCA Boston Holiday Challenge at "the TRACK" 1mile 4:59.99 7th · 7th on team 135.4 -0.048 SR
2023-12-16 TCITL League Meet 2c 1000m 3:00.21 1st · 1st on team 135.1 -0.037 SR RSR
2023-12-16 TCITL League Meet 2c 1500m 4:45.14 1st · 1st on team 135.5 -0.037 SR RSR

2023 TF 129.7

Saratoga Springs (NY) · Grade 11

Date Meet Event Result Place Rating Difficulty PR/SR Flags
2023-05-24 Section 2 Group 1 Championships 400m 1:00.63 5th · 1st on team -0.041 SR
2023-05-17 Girls Suburban Council Championships 400m 1:03.88 10th · 1st on team -0.045
2023-04-18 Guilderland Girls Triangular Meet 400m 1:03.07 4th · 1st on team -0.024 SR
2022-12-27 MSTCA Boston Holiday Challenge 1000m 3:02.1 3rd · 1st on team 129.7 -0.049 SR RSR

2022 TF 133.5

Saratoga Springs (NY) · Grade 10

Date Meet Event Result Place Rating Difficulty PR/SR Flags
2022-06-11 NYSPHSAA Outdoor Track & Field Championships 1500m 4:41.49 16th · 3rd on team 134.1 -0.043
2022-06-03 Section 2 State Qualifier 1500m 4:33.37 1st · 1st on team 139.1 -0.039 PR SR RSR
2022-05-25 Section 2 Group 1 400m 58.01 1st · 1st on team -0.041 ★PR SR
2022-05-18 Girls Suburban Council Championships 400m 1:01.23 7th · 1st on team -0.053
2022-05-11 Shaker vs Saratoga and Bethlehem 400m 59.9 1st · 1st on team -0.025 PR SR
2022-05-07 Harry Koch Colonie Relay Carnival 1500m 4:38.17 3rd · 3rd on team 136.1 -0.041 SR RSR
2022-03-05 NYSPHSAA/NYS Federation Indoor Championships 1000m 2:53.64 5th · 1st on team 135.4 -0.053 ★PR SR RSR
2022-02-26 Ocean Breeze Elite HS Invitational 800m 2:22.41 4th · 1st on team 127.4 -0.053 PR SR
2022-01-29 Section 2 Division I Championship 1000m 3:03.49 2nd · 2nd on team 133.2 -0.037 PR SR RSR
2022-01-29 Section 2 Division I Championship 600m 1:42.49 3rd · 1st on team -0.037
2022-01-23 The TCITL Frank DeMasi Utica Invitational 600m 1:40.55 2nd · 1st on team -0.046 PR SR
2022-01-15 Section 2 League Meets 6 1500m 4:59.3 1st · 1st on team 129.6 -0.037 SR RSR
2021-12-27 Boston Holiday Challenge 600m 1:45.77 12th · 1st on team -0.049 PR SR
2021-12-27 MSTCA Boston Holiday Classic 600m 1:45.77 12th · 1st on team -0.049

2021 TF 133.0

Kinetic Running (NY) · Grade 9

Date Meet Event Result Place Rating Difficulty PR/SR Flags
2021-06-19 New York State Showcase 2ksteeple 7:17.92 5th · 1st on team -0.047
2021-06-05 Section 2 Group Pent/Steeple 2ksteeple 7:37.46 2nd · 2nd on team -0.039
2021-05-22 Colonie Relay Carnival 2ksteeple 7:12.09 1st · 1st on team -0.041 ★PR SR
2021-04-18 Athletics Westchester Open Meet #5 1mile 4:57.3 4th · 3rd on team 137.0 -0.048 PR SR RSR
2021-04-18 Athletics Westchester Open Meet #5 1500m 4:38 4th · 3rd on team 135.2 -0.048 PR SR
2021-03-13 Ocean Breeze Elite Invitational 1500m 4:42.9 1st · 1st on team 132.8 -0.053 PR SR RSR
2021-02-28 adidas Indoor Nationals 1mile 5:24.34 31st · 2nd on team 127.1 -0.042 PR SR RSR